sensor_id;sensor_type;location;lat;lon;timestamp;pressure;altitude;pressure_sealevel;temperature;humidity
15272;BME280;7737;51.578;7.268;2023-05-22T00:01:44;100887.56;;;18.03;100.00
15272;BME280;7737;51.578;7.268;2023-05-22T00:04:10;100888.81;;;18.10;100.00
15272;BME280;7737;51.578;7.268;2023-05-22T00:06:41;100882.94;;;18.16;100.00
15272;BME280;7737;51.578;7.268;2023-05-22T00:09:07;100881.34;;;18.02;100.00
15272;BME280;7737;51.578;7.268;2023-05-22T00:11:34;100884.84;;;17.92;100.00
15272;BME280;7737;51.578;7.268;2023-05-22T00:14:00;100881.91;;;17.84;100.00
15272;BME280;7737;51.578;7.268;2023-05-22T00:16:27;100883.00;;;17.81;100.00
15272;BME280;7737;51.578;7.268;2023-05-22T00:18:55;100895.19;;;17.74;100.00
15272;BME280;7737;51.578;7.268;2023-05-22T00:21:22;100884.19;;;17.77;100.00
15272;BME280;7737;51.578;7.268;2023-05-22T00:23:52;100885.00;;;17.67;100.00
15272;BME280;7737;51.578;7.268;2023-05-22T00:26:19;100887.22;;;17.73;100.00
15272;BME280;7737;51.578;7.268;2023-05-22T00:28:46;100868.38;;;17.61;100.00
15272;BME280;7737;51.578;7.268;2023-05-22T00:31:13;100877.00;;;17.30;100.00
15272;BME280;7737;51.578;7.268;2023-05-22T00:33:39;100874.75;;;17.48;100.00
15272;BME280;7737;51.578;7.268;2023-05-22T00:36:07;100877.13;;;17.52;100.00
15272;BME280;7737;51.578;7.268;2023-05-22T00:38:34;100877.75;;;17.56;100.00
15272;BME280;7737;51.578;7.268;2023-05-22T00:41:04;100872.50;;;17.54;100.00
15272;BME280;7737;51.578;7.268;2023-05-22T00:43:31;100871.50;;;17.55;100.00
15272;BME280;7737;51.578;7.268;2023-05-22T00:45:57;100863.91;;;17.49;100.00
15272;BME280;7737;51.578;7.268;2023-05-22T00:48:24;100871.97;;;17.49;100.00
15272;BME280;7737;51.578;7.268;2023-05-22T00:50:53;100872.19;;;17.46;100.00
15272;BME280;7737;51.578;7.268;2023-05-22T00:53:23;100870.47;;;17.45;100.00
15272;BME280;7737;51.578;7.268;2023-05-22T00:55:50;100869.09;;;17.40;100.00
15272;BME280;7737;51.578;7.268;2023-05-22T00:58:18;100876.06;;;17.42;100.00
15272;BME280;7737;51.578;7.268;2023-05-22T01:00:46;100873.75;;;17.38;100.00
15272;BME280;7737;51.578;7.268;2023-05-22T01:03:13;100880.09;;;17.13;100.00
15272;BME280;7737;51.578;7.268;2023-05-22T01:05:41;100875.28;;;17.29;100.00
15272;BME280;7737;51.578;7.268;2023-05-22T01:08:11;100868.03;;;17.19;100.00
15272;BME280;7737;51.578;7.268;2023-05-22T01:10:38;100865.81;;;17.36;100.00
15272;BME280;7737;51.578;7.268;2023-05-22T01:13:13;100859.44;;;17.37;100.00
15272;BME280;7737;51.578;7.268;2023-05-22T01:15:48;100852.94;;;17.29;100.00
15272;BME280;7737;51.578;7.268;2023-05-22T01:18:22;100849.97;;;17.21;100.00
15272;BME280;7737;51.578;7.268;2023-05-22T01:20:56;100853.34;;;17.12;100.00
15272;BME280;7737;51.578;7.268;2023-05-22T01:23:54;100854.06;;;16.90;100.00
15272;BME280;7737;51.578;7.268;2023-05-22T01:26:42;100851.91;;;16.95;100.00
15272;BME280;7737;51.578;7.268;2023-05-22T01:29:27;100852.53;;;16.98;100.00
15272;BME280;7737;51.578;7.268;2023-05-22T01:31:58;100849.63;;;17.01;100.00
15272;BME280;7737;51.578;7.268;2023-05-22T01:34:27;100847.50;;;16.94;100.00
15272;BME280;7737;51.578;7.268;2023-05-22T01:36:56;100850.72;;;16.99;100.00
15272;BME280;7737;51.578;7.268;2023-05-22T01:39:24;100856.22;;;16.85;100.00
15272;BME280;7737;51.578;7.268;2023-05-22T01:41:51;100844.31;;;16.89;100.00
15272;BME280;7737;51.578;7.268;2023-05-22T01:44:17;100857.44;;;16.81;100.00
15272;BME280;7737;51.578;7.268;2023-05-22T01:46:44;100850.34;;;16.80;100.00
15272;BME280;7737;51.578;7.268;2023-05-22T01:49:11;100853.16;;;16.78;100.00
15272;BME280;7737;51.578;7.268;2023-05-22T01:51:46;100843.53;;;16.87;100.00
15272;BME280;7737;51.578;7.268;2023-05-22T01:54:16;100843.50;;;16.76;100.00
15272;BME280;7737;51.578;7.268;2023-05-22T01:56:48;100852.06;;;16.81;100.00
15272;BME280;7737;51.578;7.268;2023-05-22T01:59:22;100855.88;;;16.89;100.00
15272;BME280;7737;51.578;7.268;2023-05-22T02:01:53;100850.19;;;16.94;100.00
15272;BME280;7737;51.578;7.268;2023-05-22T02:04:22;100850.78;;;16.86;100.00
15272;BME280;7737;51.578;7.268;2023-05-22T02:06:50;100846.66;;;16.93;100.00
15272;BME280;7737;51.578;7.268;2023-05-22T02:09:18;100854.19;;;16.88;100.00
15272;BME280;7737;51.578;7.268;2023-05-22T02:11:47;100853.09;;;16.91;100.00
15272;BME280;7737;51.578;7.268;2023-05-22T02:14:14;100858.25;;;16.94;100.00
15272;BME280;7737;51.578;7.268;2023-05-22T02:16:40;100854.19;;;16.88;100.00
15272;BME280;7737;51.578;7.268;2023-05-22T02:19:11;100858.69;;;16.88;100.00
15272;BME280;7737;51.578;7.268;2023-05-22T02:21:38;100860.88;;;16.83;100.00
15272;BME280;7737;51.578;7.268;2023-05-22T02:24:05;100862.44;;;16.49;100.00
15272;BME280;7737;51.578;7.268;2023-05-22T02:26:32;100857.28;;;16.33;100.00
15272;BME280;7737;51.578;7.268;2023-05-22T02:28:58;100854.69;;;16.44;100.00
15272;BME280;7737;51.578;7.268;2023-05-22T02:31:25;100854.06;;;16.41;100.00
15272;BME280;7737;51.578;7.268;2023-05-22T02:33:51;100843.50;;;16.51;100.00
15272;BME280;7737;51.578;7.268;2023-05-22T02:36:18;100843.00;;;16.20;100.00
15272;BME280;7737;51.578;7.268;2023-05-22T02:38:46;100845.91;;;16.30;100.00
15272;BME280;7737;51.578;7.268;2023-05-22T02:41:12;100844.72;;;16.47;100.00
15272;BME280;7737;51.578;7.268;2023-05-22T02:43:39;100842.78;;;16.49;100.00
15272;BME280;7737;51.578;7.268;2023-05-22T02:46:05;100833.56;;;16.53;100.00
15272;BME280;7737;51.578;7.268;2023-05-22T02:48:32;100826.66;;;16.49;100.00
15272;BME280;7737;51.578;7.268;2023-05-22T02:50:58;100825.50;;;16.53;100.00
15272;BME280;7737;51.578;7.268;2023-05-22T02:53:25;100817.44;;;16.53;100.00
15272;BME280;7737;51.578;7.268;2023-05-22T02:55:53;100811.13;;;16.54;100.00
15272;BME280;7737;51.578;7.268;2023-05-22T02:58:23;100808.97;;;16.46;100.00
15272;BME280;7737;51.578;7.268;2023-05-22T03:00:50;100808.75;;;16.36;100.00
15272;BME280;7737;51.578;7.268;2023-05-22T03:03:17;100805.28;;;16.47;100.00
15272;BME280;7737;51.578;7.268;2023-05-22T03:05:43;100809.56;;;16.50;100.00
15272;BME280;7737;51.578;7.268;2023-05-22T03:08:10;100801.47;;;16.38;100.00
15272;BME280;7737;51.578;7.268;2023-05-22T03:10:39;100804.59;;;16.32;100.00
15272;BME280;7737;51.578;7.268;2023-05-22T03:13:07;100796.88;;;16.28;100.00
15272;BME280;7737;51.578;7.268;2023-05-22T03:15:34;100809.34;;;16.16;100.00
15272;BME280;7737;51.578;7.268;2023-05-22T03:18:00;100806.66;;;16.16;100.00
15272;BME280;7737;51.578;7.268;2023-05-22T03:20:27;100806.22;;;16.22;100.00
15272;BME280;7737;51.578;7.268;2023-05-22T03:22:54;100806.00;;;16.25;100.00
15272;BME280;7737;51.578;7.268;2023-05-22T03:25:20;100805.53;;;16.31;100.00
15272;BME280;7737;51.578;7.268;2023-05-22T03:27:47;100807.28;;;16.32;100.00
15272;BME280;7737;51.578;7.268;2023-05-22T03:30:15;100801.69;;;16.35;100.00
15272;BME280;7737;51.578;7.268;2023-05-22T03:32:41;100797.41;;;16.33;100.00
15272;BME280;7737;51.578;7.268;2023-05-22T03:35:08;100799.97;;;16.34;100.00
15272;BME280;7737;51.578;7.268;2023-05-22T03:37:35;100796.09;;;16.38;100.00
15272;BME280;7737;51.578;7.268;2023-05-22T03:40:02;100796.75;;;16.29;100.00
15272;BME280;7737;51.578;7.268;2023-05-22T03:42:30;100798.91;;;16.24;100.00
15272;BME280;7737;51.578;7.268;2023-05-22T03:44:56;100808.78;;;16.24;100.00
15272;BME280;7737;51.578;7.268;2023-05-22T03:47:24;100811.91;;;16.18;100.00
15272;BME280;7737;51.578;7.268;2023-05-22T03:49:50;100810.06;;;16.18;100.00
15272;BME280;7737;51.578;7.268;2023-05-22T03:52:17;100804.84;;;16.04;100.00
15272;BME280;7737;51.578;7.268;2023-05-22T03:54:43;100797.44;;;16.08;100.00
15272;BME280;7737;51.578;7.268;2023-05-22T03:57:10;100798.50;;;16.05;100.00
15272;BME280;7737;51.578;7.268;2023-05-22T03:59:36;100799.50;;;16.04;100.00
15272;BME280;7737;51.578;7.268;2023-05-22T04:02:03;100792.72;;;16.11;100.00
15272;BME280;7737;51.578;7.268;2023-05-22T04:04:31;100789.47;;;16.19;100.00
15272;BME280;7737;51.578;7.268;2023-05-22T04:07:03;100797.66;;;16.17;100.00
15272;BME280;7737;51.578;7.268;2023-05-22T04:09:33;100791.28;;;16.18;100.00
15272;BME280;7737;51.578;7.268;2023-05-22T04:12:00;100797.00;;;16.14;100.00
15272;BME280;7737;51.578;7.268;2023-05-22T04:14:26;100790.13;;;16.22;100.00
15272;BME280;7737;51.578;7.268;2023-05-22T04:16:53;100795.72;;;16.19;100.00
15272;BME280;7737;51.578;7.268;2023-05-22T04:19:19;100807.19;;;16.21;100.00
15272;BME280;7737;51.578;7.268;2023-05-22T04:21:47;100804.72;;;16.18;100.00
15272;BME280;7737;51.578;7.268;2023-05-22T04:24:14;100805.78;;;16.16;100.00
15272;BME280;7737;51.578;7.268;2023-05-22T04:26:40;100803.00;;;16.17;100.00
15272;BME280;7737;51.578;7.268;2023-05-22T04:29:07;100806.22;;;16.22;100.00
15272;BME280;7737;51.578;7.268;2023-05-22T04:31:38;100806.75;;;16.27;100.00
15272;BME280;7737;51.578;7.268;2023-05-22T04:34:05;100810.03;;;16.31;100.00
15272;BME280;7737;51.578;7.268;2023-05-22T04:36:32;100810.81;;;16.33;100.00
15272;BME280;7737;51.578;7.268;2023-05-22T04:39:01;100808.00;;;16.34;100.00
15272;BME280;7737;51.578;7.268;2023-05-22T04:41:28;100803.69;;;16.44;100.00
15272;BME280;7737;51.578;7.268;2023-05-22T04:43:54;100800.78;;;16.48;100.00
15272;BME280;7737;51.578;7.268;2023-05-22T04:46:21;100800.78;;;16.48;100.00
15272;BME280;7737;51.578;7.268;2023-05-22T04:48:47;100807.66;;;16.52;100.00
15272;BME280;7737;51.578;7.268;2023-05-22T04:51:15;100804.66;;;16.56;100.00
15272;BME280;7737;51.578;7.268;2023-05-22T04:53:41;100799.47;;;16.66;100.00
15272;BME280;7737;51.578;7.268;2023-05-22T04:56:09;100801.59;;;16.73;100.00
15272;BME280;7737;51.578;7.268;2023-05-22T04:58:36;100795.03;;;16.77;100.00
15272;BME280;7737;51.578;7.268;2023-05-22T05:01:04;100798.13;;;16.84;100.00
15272;BME280;7737;51.578;7.268;2023-05-22T05:03:31;100799.75;;;16.86;100.00
15272;BME280;7737;51.578;7.268;2023-05-22T05:05:58;100795.78;;;16.79;100.00
15272;BME280;7737;51.578;7.268;2023-05-22T05:08:24;100796.19;;;16.86;100.00
15272;BME280;7737;51.578;7.268;2023-05-22T05:10:51;100794.97;;;16.90;100.00
15272;BME280;7737;51.578;7.268;2023-05-22T05:13:19;100795.13;;;16.88;100.00
15272;BME280;7737;51.578;7.268;2023-05-22T05:15:45;100801.50;;;16.98;100.00
15272;BME280;7737;51.578;7.268;2023-05-22T05:18:12;100799.34;;;17.03;100.00
15272;BME280;7737;51.578;7.268;2023-05-22T05:20:38;100806.81;;;17.11;100.00
15272;BME280;7737;51.578;7.268;2023-05-22T05:23:05;100803.75;;;17.16;100.00
15272;BME280;7737;51.578;7.268;2023-05-22T05:25:32;100810.06;;;17.03;100.00
15272;BME280;7737;51.578;7.268;2023-05-22T05:28:02;100812.41;;;17.08;100.00
15272;BME280;7737;51.578;7.268;2023-05-22T05:30:36;100808.53;;;17.12;100.00
15272;BME280;7737;51.578;7.268;2023-05-22T05:33:03;100807.66;;;17.12;100.00
15272;BME280;7737;51.578;7.268;2023-05-22T05:35:29;100814.69;;;17.25;100.00
15272;BME280;7737;51.578;7.268;2023-05-22T05:37:56;100815.38;;;17.16;100.00
15272;BME280;7737;51.578;7.268;2023-05-22T05:40:22;100813.19;;;17.21;100.00
15272;BME280;7737;51.578;7.268;2023-05-22T05:42:49;100813.19;;;17.21;100.00
15272;BME280;7737;51.578;7.268;2023-05-22T05:45:16;100818.56;;;17.21;100.00
15272;BME280;7737;51.578;7.268;2023-05-22T05:47:44;100819.75;;;17.41;100.00
15272;BME280;7737;51.578;7.268;2023-05-22T05:50:11;100813.03;;;17.35;100.00
15272;BME280;7737;51.578;7.268;2023-05-22T05:52:39;100819.53;;;17.44;100.00
15272;BME280;7737;51.578;7.268;2023-05-22T05:55:06;100818.94;;;17.51;100.00
15272;BME280;7737;51.578;7.268;2023-05-22T05:57:33;100814.16;;;17.44;100.00
15272;BME280;7737;51.578;7.268;2023-05-22T06:00:00;100813.97;;;17.58;100.00
15272;BME280;7737;51.578;7.268;2023-05-22T06:02:26;100824.41;;;17.74;100.00
15272;BME280;7737;51.578;7.268;2023-05-22T06:04:54;100816.09;;;17.66;100.00
15272;BME280;7737;51.578;7.268;2023-05-22T06:07:21;100826.38;;;17.83;100.00
15272;BME280;7737;51.578;7.268;2023-05-22T06:09:48;100817.59;;;17.81;100.00
15272;BME280;7737;51.578;7.268;2023-05-22T06:12:14;100821.47;;;17.77;100.00
15272;BME280;7737;51.578;7.268;2023-05-22T06:14:41;100816.47;;;17.83;100.00
15272;BME280;7737;51.578;7.268;2023-05-22T06:17:08;100819.94;;;17.96;100.00
15272;BME280;7737;51.578;7.268;2023-05-22T06:19:34;100812.84;;;18.06;100.00
15272;BME280;7737;51.578;7.268;2023-05-22T06:22:02;100815.91;;;18.13;100.00
15272;BME280;7737;51.578;7.268;2023-05-22T06:24:29;100811.97;;;18.06;100.00
15272;BME280;7737;51.578;7.268;2023-05-22T06:26:56;100815.53;;;18.17;100.00
15272;BME280;7737;51.578;7.268;2023-05-22T06:29:23;100814.44;;;18.20;100.00
15272;BME280;7737;51.578;7.268;2023-05-22T06:31:50;100818.25;;;18.29;100.00
15272;BME280;7737;51.578;7.268;2023-05-22T06:34:16;100814.44;;;18.20;100.00
15272;BME280;7737;51.578;7.268;2023-05-22T06:36:43;100819.34;;;18.26;100.00
15272;BME280;7737;51.578;7.268;2023-05-22T06:39:11;100820.56;;;18.44;100.00
15272;BME280;7737;51.578;7.268;2023-05-22T06:41:38;100822.03;;;18.37;100.00
15272;BME280;7737;51.578;7.268;2023-05-22T06:44:04;100825.06;;;18.33;100.00
15272;BME280;7737;51.578;7.268;2023-05-22T06:46:31;100832.81;;;18.48;100.00
15272;BME280;7737;51.578;7.268;2023-05-22T06:48:57;100830.84;;;18.61;100.00
15272;BME280;7737;51.578;7.268;2023-05-22T06:51:24;100825.59;;;18.60;100.00
15272;BME280;7737;51.578;7.268;2023-05-22T06:53:51;100822.03;;;18.70;100.00
15272;BME280;7737;51.578;7.268;2023-05-22T06:56:18;100820.34;;;18.58;100.00
15272;BME280;7737;51.578;7.268;2023-05-22T06:58:47;100819.22;;;18.61;100.00
15272;BME280;7737;51.578;7.268;2023-05-22T07:01:13;100814.91;;;18.69;100.00
15272;BME280;7737;51.578;7.268;2023-05-22T07:03:40;100817.31;;;18.95;100.00
15272;BME280;7737;51.578;7.268;2023-05-22T07:06:06;100816.66;;;19.13;100.00
15272;BME280;7737;51.578;7.268;2023-05-22T07:08:33;100825.81;;;19.22;100.00
15272;BME280;7737;51.578;7.268;2023-05-22T07:11:00;100819.78;;;19.29;100.00
15272;BME280;7737;51.578;7.268;2023-05-22T07:13:27;100817.66;;;19.33;100.00
15272;BME280;7737;51.578;7.268;2023-05-22T07:15:56;100817.13;;;19.18;100.00
15272;BME280;7737;51.578;7.268;2023-05-22T07:18:22;100822.31;;;19.31;100.00
15272;BME280;7737;51.578;7.268;2023-05-22T07:20:49;100824.63;;;19.35;100.00
15272;BME280;7737;51.578;7.268;2023-05-22T07:23:15;100816.81;;;19.64;100.00
15272;BME280;7737;51.578;7.268;2023-05-22T07:25:42;100825.53;;;19.57;100.00
15272;BME280;7737;51.578;7.268;2023-05-22T07:28:09;100818.72;;;19.73;100.00
15272;BME280;7737;51.578;7.268;2023-05-22T07:30:37;100829.75;;;19.50;100.00
15272;BME280;7737;51.578;7.268;2023-05-22T07:33:04;100823.19;;;19.63;100.00
15272;BME280;7737;51.578;7.268;2023-05-22T07:35:31;100819.97;;;19.69;100.00
15272;BME280;7737;51.578;7.268;2023-05-22T07:37:58;100825.53;;;19.98;100.00
15272;BME280;7737;51.578;7.268;2023-05-22T07:40:26;100825.06;;;20.14;100.00
15272;BME280;7737;51.578;7.268;2023-05-22T07:42:52;100814.06;;;20.05;100.00
15272;BME280;7737;51.578;7.268;2023-05-22T07:45:19;100813.09;;;20.07;100.00
15272;BME280;7737;51.578;7.268;2023-05-22T07:47:47;100812.88;;;20.19;100.00
15272;BME280;7737;51.578;7.268;2023-05-22T07:50:13;100810.13;;;20.30;100.00
15272;BME280;7737;51.578;7.268;2023-05-22T07:52:40;100811.97;;;20.30;100.00
15272;BME280;7737;51.578;7.268;2023-05-22T07:55:07;100811.75;;;20.22;100.00
15272;BME280;7737;51.578;7.268;2023-05-22T07:57:34;100812.03;;;20.49;100.00
15272;BME280;7737;51.578;7.268;2023-05-22T08:00:01;100817.72;;;20.55;100.00
15272;BME280;7737;51.578;7.268;2023-05-22T08:02:33;100813.09;;;20.77;100.00
15272;BME280;7737;51.578;7.268;2023-05-22T08:05:01;100801.16;;;20.79;100.00
15272;BME280;7737;51.578;7.268;2023-05-22T08:07:29;100808.00;;;20.93;100.00
15272;BME280;7737;51.578;7.268;2023-05-22T08:09:57;100809.69;;;20.84;100.00
15272;BME280;7737;51.578;7.268;2023-05-22T08:12:23;100806.00;;;20.85;100.00
15272;BME280;7737;51.578;7.268;2023-05-22T08:14:50;100800.06;;;21.01;100.00
15272;BME280;7737;51.578;7.268;2023-05-22T08:17:16;100806.66;;;21.27;100.00
15272;BME280;7737;51.578;7.268;2023-05-22T08:19:43;100800.53;;;21.35;100.00
15272;BME280;7737;51.578;7.268;2023-05-22T08:22:11;100806.22;;;21.32;100.00
15272;BME280;7737;51.578;7.268;2023-05-22T08:24:38;100808.91;;;21.51;100.00
15272;BME280;7737;51.578;7.268;2023-05-22T08:27:05;100804.53;;;21.50;100.00
15272;BME280;7737;51.578;7.268;2023-05-22T08:29:31;100806.63;;;21.56;100.00
15272;BME280;7737;51.578;7.268;2023-05-22T08:31:58;100800.94;;;21.59;100.00
15272;BME280;7737;51.578;7.268;2023-05-22T08:34:25;100799.06;;;21.69;100.00
15272;BME280;7737;51.578;7.268;2023-05-22T08:39:20;100796.56;;;22.14;100.00
15272;BME280;7737;51.578;7.268;2023-05-22T08:41:47;100802.34;;;21.72;100.00
15272;BME280;7737;51.578;7.268;2023-05-22T08:44:14;100795.75;;;21.84;100.00
15272;BME280;7737;51.578;7.268;2023-05-22T08:46:41;100798.00;;;22.08;100.00
15272;BME280;7737;51.578;7.268;2023-05-22T08:49:08;100796.94;;;22.28;100.00
15272;BME280;7737;51.578;7.268;2023-05-22T08:51:37;100790.03;;;22.43;100.00
15272;BME280;7737;51.578;7.268;2023-05-22T08:54:05;100790.38;;;22.31;100.00
15272;BME280;7737;51.578;7.268;2023-05-22T08:56:33;100791.13;;;22.51;100.00
15272;BME280;7737;51.578;7.268;2023-05-22T08:59:00;100779.88;;;22.18;100.00
15272;BME280;7737;51.578;7.268;2023-05-22T09:01:28;100782.00;;;22.52;100.00
15272;BME280;7737;51.578;7.268;2023-05-22T09:03:58;100778.63;;;22.77;100.00
15272;BME280;7737;51.578;7.268;2023-05-22T09:06:26;100783.97;;;22.86;100.00
15272;BME280;7737;51.578;7.268;2023-05-22T09:08:53;100778.66;;;22.67;100.00
15272;BME280;7737;51.578;7.268;2023-05-22T09:11:20;100776.47;;;22.43;100.00
15272;BME280;7737;51.578;7.268;2023-05-22T09:13:48;100771.47;;;22.76;100.00
15272;BME280;7737;51.578;7.268;2023-05-22T09:16:16;100779.09;;;23.08;100.00
15272;BME280;7737;51.578;7.268;2023-05-22T09:18:43;100763.03;;;22.96;100.00
15272;BME280;7737;51.578;7.268;2023-05-22T09:21:11;100762.03;;;23.15;100.00
15272;BME280;7737;51.578;7.268;2023-05-22T09:23:39;100766.16;;;23.19;100.00
15272;BME280;7737;51.578;7.268;2023-05-22T09:26:05;100752.25;;;23.22;100.00
15272;BME280;7737;51.578;7.268;2023-05-22T09:28:32;100754.91;;;23.49;100.00
15272;BME280;7737;51.578;7.268;2023-05-22T09:31:01;100756.09;;;23.73;100.00
15272;BME280;7737;51.578;7.268;2023-05-22T09:33:30;100743.16;;;23.67;100.00
15272;BME280;7737;51.578;7.268;2023-05-22T09:35:57;100749.28;;;23.94;100.00
15272;BME280;7737;51.578;7.268;2023-05-22T09:38:26;100751.38;;;23.75;100.00
15272;BME280;7737;51.578;7.268;2023-05-22T09:40:54;100742.69;;;24.31;100.00
15272;BME280;7737;51.578;7.268;2023-05-22T09:43:21;100733.81;;;23.95;100.00
15272;BME280;7737;51.578;7.268;2023-05-22T09:45:55;100722.44;;;23.91;100.00
15272;BME280;7737;51.578;7.268;2023-05-22T09:48:23;100729.81;;;24.07;100.00
15272;BME280;7737;51.578;7.268;2023-05-22T09:50:52;100730.16;;;24.88;100.00
15272;BME280;7737;51.578;7.268;2023-05-22T09:53:24;100711.69;;;24.57;100.00
15272;BME280;7737;51.578;7.268;2023-05-22T09:55:52;100706.63;;;24.70;100.00
15272;BME280;7737;51.578;7.268;2023-05-22T09:58:18;100716.41;;;24.47;100.00
15272;BME280;7737;51.578;7.268;2023-05-22T10:00:46;100705.28;;;24.74;100.00
15272;BME280;7737;51.578;7.268;2023-05-22T10:03:14;100708.31;;;24.63;100.00
15272;BME280;7737;51.578;7.268;2023-05-22T10:05:49;100697.16;;;25.39;100.00
15272;BME280;7737;51.578;7.268;2023-05-22T10:08:22;100701.84;;;24.56;100.00
15272;BME280;7737;51.578;7.268;2023-05-22T10:10:50;100705.69;;;25.20;100.00
15272;BME280;7737;51.578;7.268;2023-05-22T10:13:17;100700.06;;;25.29;100.00
15272;BME280;7737;51.578;7.268;2023-05-22T10:15:46;100715.03;;;25.58;100.00
15272;BME280;7737;51.578;7.268;2023-05-22T10:18:13;100695.47;;;25.38;100.00
15272;BME280;7737;51.578;7.268;2023-05-22T10:20:40;100697.88;;;25.49;100.00
15272;BME280;7737;51.578;7.268;2023-05-22T10:23:09;100678.81;;;25.33;100.00
15272;BME280;7737;51.578;7.268;2023-05-22T10:25:36;100688.50;;;25.27;100.00
15272;BME280;7737;51.578;7.268;2023-05-22T10:28:03;100684.66;;;25.93;100.00
15272;BME280;7737;51.578;7.268;2023-05-22T10:30:35;100672.38;;;26.05;100.00
15272;BME280;7737;51.578;7.268;2023-05-22T10:33:11;100681.09;;;25.84;100.00
15272;BME280;7737;51.578;7.268;2023-05-22T10:35:43;100689.00;;;25.63;100.00
15272;BME280;7737;51.578;7.268;2023-05-22T10:41:02;100685.44;;;25.63;100.00
15272;BME280;7737;51.578;7.268;2023-05-22T10:43:29;100683.06;;;26.07;100.00
15272;BME280;7737;51.578;7.268;2023-05-22T10:46:01;100671.91;;;26.32;100.00
15272;BME280;7737;51.578;7.268;2023-05-22T10:48:29;100684.00;;;26.30;100.00
15272;BME280;7737;51.578;7.268;2023-05-22T10:50:55;100680.09;;;26.63;100.00
15272;BME280;7737;51.578;7.268;2023-05-22T10:53:24;100655.75;;;26.31;100.00
15272;BME280;7737;51.578;7.268;2023-05-22T10:55:53;100660.06;;;26.48;100.00
15272;BME280;7737;51.578;7.268;2023-05-22T10:58:24;100684.50;;;25.94;100.00
15272;BME280;7737;51.578;7.268;2023-05-22T11:01:07;100673.69;;;25.62;100.00
15272;BME280;7737;51.578;7.268;2023-05-22T11:03:55;100681.88;;;26.48;100.00
15272;BME280;7737;51.578;7.268;2023-05-22T11:06:33;100646.91;;;26.51;100.00
15272;BME280;7737;51.578;7.268;2023-05-22T11:09:18;100646.03;;;27.04;100.00
15272;BME280;7737;51.578;7.268;2023-05-22T11:11:46;100650.03;;;26.71;100.00
15272;BME280;7737;51.578;7.268;2023-05-22T11:14:15;100645.53;;;27.01;100.00
15272;BME280;7737;51.578;7.268;2023-05-22T11:16:42;100634.88;;;26.07;100.00
15272;BME280;7737;51.578;7.268;2023-05-22T11:19:09;100651.94;;;25.54;100.00
15272;BME280;7737;51.578;7.268;2023-05-22T11:21:41;100671.84;;;26.01;100.00
15272;BME280;7737;51.578;7.268;2023-05-22T11:24:10;100668.38;;;27.23;100.00
15272;BME280;7737;51.578;7.268;2023-05-22T11:26:40;100624.56;;;27.01;100.00
15272;BME280;7737;51.578;7.268;2023-05-22T11:29:07;100619.97;;;25.87;100.00
15272;BME280;7737;51.578;7.268;2023-05-22T11:31:34;100650.59;;;25.97;100.00
15272;BME280;7737;51.578;7.268;2023-05-22T11:34:02;100624.69;;;26.63;100.00
15272;BME280;7737;51.578;7.268;2023-05-22T11:36:28;100616.63;;;27.29;100.00
15272;BME280;7737;51.578;7.268;2023-05-22T11:38:56;100616.22;;;27.17;100.00
15272;BME280;7737;51.578;7.268;2023-05-22T11:41:28;100611.47;;;27.49;100.00
15272;BME280;7737;51.578;7.268;2023-05-22T11:43:55;100599.75;;;27.26;100.00
15272;BME280;7737;51.578;7.268;2023-05-22T11:46:22;100607.09;;;26.65;100.00
15272;BME280;7737;51.578;7.268;2023-05-22T11:48:50;100621.50;;;26.51;100.00
15272;BME280;7737;51.578;7.268;2023-05-22T11:51:18;100623.97;;;26.91;100.00
15272;BME280;7737;51.578;7.268;2023-05-22T11:53:45;100609.56;;;27.35;100.00
15272;BME280;7737;51.578;7.268;2023-05-22T11:56:12;100604.72;;;27.45;100.00
15272;BME280;7737;51.578;7.268;2023-05-22T11:58:40;100604.28;;;26.28;100.00
15272;BME280;7737;51.578;7.268;2023-05-22T12:01:06;100605.50;;;26.48;100.00
15272;BME280;7737;51.578;7.268;2023-05-22T12:03:33;100628.69;;;26.52;100.00
15272;BME280;7737;51.578;7.268;2023-05-22T12:06:00;100614.94;;;26.91;100.00
15272;BME280;7737;51.578;7.268;2023-05-22T12:08:27;100617.91;;;27.56;100.00
15272;BME280;7737;51.578;7.268;2023-05-22T12:10:54;100595.25;;;27.33;100.00
15272;BME280;7737;51.578;7.268;2023-05-22T12:13:22;100604.72;;;27.45;100.00
15272;BME280;7737;51.578;7.268;2023-05-22T12:15:52;100604.72;;;27.45;100.00
15272;BME280;7737;51.578;7.268;2023-05-22T12:18:18;100615.66;;;27.22;100.00
15272;BME280;7737;51.578;7.268;2023-05-22T12:20:45;100608.03;;;27.17;100.00
15272;BME280;7737;51.578;7.268;2023-05-22T12:23:19;100596.16;;;27.10;100.00
15272;BME280;7737;51.578;7.268;2023-05-22T12:25:46;100591.03;;;27.59;100.00
15272;BME280;7737;51.578;7.268;2023-05-22T12:28:12;100591.69;;;28.05;100.00
15272;BME280;7737;51.578;7.268;2023-05-22T12:30:39;100584.63;;;27.82;100.00
15272;BME280;7737;51.578;7.268;2023-05-22T12:33:12;100600.34;;;27.94;100.00
15272;BME280;7737;51.578;7.268;2023-05-22T12:35:40;100611.81;;;26.79;100.00
15272;BME280;7737;51.578;7.268;2023-05-22T12:38:07;100622.06;;;27.14;100.00
15272;BME280;7737;51.578;7.268;2023-05-22T12:40:34;100614.91;;;27.51;100.00
15272;BME280;7737;51.578;7.268;2023-05-22T12:43:01;100598.41;;;27.73;100.00
15272;BME280;7737;51.578;7.268;2023-05-22T12:45:27;100577.16;;;28.19;98.95
15272;BME280;7737;51.578;7.268;2023-05-22T12:47:54;100570.81;;;28.19;97.94
15272;BME280;7737;51.578;7.268;2023-05-22T12:50:22;100573.47;;;28.12;98.68
15272;BME280;7737;51.578;7.268;2023-05-22T12:52:49;100565.50;;;28.32;98.36
15272;BME280;7737;51.578;7.268;2023-05-22T12:55:15;100561.13;;;28.59;97.37
15272;BME280;7737;51.578;7.268;2023-05-22T12:57:42;100571.59;;;27.25;95.95
15272;BME280;7737;51.578;7.268;2023-05-22T13:00:09;100599.41;;;27.29;99.49